Time,TemperatureF,DewpointF,PressureIn,WindDirection,WindDirectionDegrees,WindSpeedMPH,WindSpeedGustMPH,Humidity,HourlyPrecipIn,Conditions,Clouds,dailyrainin,SoftwareType,DateUTC
2013-05-25 00:00:00,49.9,48.2,29.81,NW,315,9.0,18.0,94,0.00,,,0.00,WeatherCatV1.01B143,2013-05-25 04:00:00,
2013-05-25 00:05:00,48.6,47.5,29.78,NW,315,8.0,18.0,96,0.00,,,0.00,WeatherCatV1.01B143,2013-05-25 04:05:00,
2013-05-25 00:10:00,48.6,47.5,29.78,NW,315,8.0,18.0,96,0.00,,,0.00,WeatherCatV1.01B143,2013-05-25 04:10:00,
2013-05-25 00:15:00,48.6,47.5,29.78,NW,315,8.0,18.0,96,0.00,,,0.00,WeatherCatV1.01B143,2013-05-25 04:15:00,
2013-05-25 00:20:00,48.6,47.5,29.78,NW,315,8.0,18.0,96,0.00,,,0.00,WeatherCatV1.01B143,2013-05-25 04:20:00,
2013-05-25 00:25:00,48.6,47.5,29.78,NW,315,8.0,18.0,96,0.00,,,0.00,WeatherCatV1.01B143,2013-05-25 04:25:00,
2013-05-25 00:30:00,48.6,47.5,29.78,NW,315,8.0,18.0,96,0.00,,,0.00,WeatherCatV1.01B143,2013-05-25 04:30:00,
2013-05-25 00:35:00,48.1,47.0,29.77,North,0,7.0,18.0,96,0.00,,,0.00,WeatherCatV1.01B143,2013-05-25 04:35:00,
2013-05-25 00:40:00,48.1,47.0,29.77,North,0,7.0,18.0,96,0.00,,,0.00,WeatherCatV1.01B143,2013-05-25 04:40:00,
2013-05-25 00:45:00,48.1,47.0,29.77,North,0,7.0,18.0,96,0.00,,,0.00,WeatherCatV1.01B143,2013-05-25 04:45:00,
2013-05-25 00:50:00,48.1,47.0,29.77,North,0,7.0,18.0,96,0.00,,,0.00,WeatherCatV1.01B143,2013-05-25 04:50:00,
2013-05-25 00:55:00,48.1,47.0,29.77,North,0,7.0,18.0,96,0.00,,,0.00,WeatherCatV1.01B143,2013-05-25 04:55:00,
2013-05-25 01:00:00,48.1,47.0,29.77,North,0,7.0,18.0,96,0.00,,,0.00,WeatherCatV1.01B143,2013-05-25 05:00:00,
2013-05-25 01:05:00,47.7,46.3,29.76,NNE,22,8.0,24.0,95,0.00,,,0.00,WeatherCatV1.01B143,2013-05-25 05:05:00,
2013-05-25 01:10:00,47.7,46.3,29.76,NNE,22,8.0,24.0,95,0.00,,,0.00,WeatherCatV1.01B143,2013-05-25 05:10:00,
2013-05-25 01:15:00,47.7,46.3,29.76,NNE,22,8.0,24.0,95,0.00,,,0.00,WeatherCatV1.01B143,2013-05-25 05:15:00,
2013-05-25 01:20:00,47.7,46.3,29.76,NNE,22,8.0,24.0,95,0.00,,,0.00,WeatherCatV1.01B143,2013-05-25 05:20:00,
2013-05-25 01:25:00,47.7,46.3,29.76,NNE,22,8.0,24.0,95,0.00,,,0.00,WeatherCatV1.01B143,2013-05-25 05:25:00,
2013-05-25 01:30:00,47.7,46.3,29.76,NNE,22,8.0,24.0,95,0.00,,,0.00,WeatherCatV1.01B143,2013-05-25 05:30:00,
2013-05-25 01:35:00,52.2,51.1,29.72,NNE,22,9.0,23.0,96,0.00,,,0.00,WeatherCatV1.01B143,2013-05-25 05:35:00,
2013-05-25 01:40:00,52.2,51.1,29.72,NNE,22,9.0,23.0,96,0.00,,,0.00,WeatherCatV1.01B143,2013-05-25 05:40:00,
2013-05-25 01:45:00,52.2,51.1,29.72,NNE,22,9.0,23.0,96,0.00,,,0.00,WeatherCatV1.01B143,2013-05-25 05:45:00,
2013-05-25 01:50:00,52.2,51.1,29.72,NNE,22,9.0,23.0,96,0.00,,,0.00,WeatherCatV1.01B143,2013-05-25 05:50:00,
2013-05-25 01:55:00,52.2,51.1,29.72,NNE,22,9.0,23.0,96,0.00,,,0.00,WeatherCatV1.01B143,2013-05-25 05:55:00,
2013-05-25 02:00:00,52.2,51.1,29.72,NNE,22,9.0,23.0,96,0.00,,,0.00,WeatherCatV1.01B143,2013-05-25 06:00:00,
2013-05-25 02:05:00,90.3,90.3,29.75,North,0,10.0,26.0,100,0.00,,,0.00,WeatherCatV1.01B143,2013-05-25 06:05:00,
2013-05-25 02:10:00,90.3,90.3,29.75,North,0,10.0,26.0,100,0.00,,,0.00,WeatherCatV1.01B143,2013-05-25 06:10:00,
2013-05-25 02:15:00,90.3,90.3,29.75,North,0,10.0,26.0,100,0.00,,,0.00,WeatherCatV1.01B143,2013-05-25 06:15:00,
2013-05-25 02:20:00,90.3,90.3,29.75,North,0,10.0,26.0,100,0.00,,,0.00,WeatherCatV1.01B143,2013-05-25 06:20:00,
2013-05-25 02:25:00,90.3,90.3,29.75,North,0,10.0,26.0,100,0.00,,,0.00,WeatherCatV1.01B143,2013-05-25 06:25:00,
2013-05-25 02:30:00,90.3,90.3,29.75,North,0,10.0,26.0,100,0.00,,,0.00,WeatherCatV1.01B143,2013-05-25 06:30:00,
2013-05-25 02:35:00,124.5,99.9,29.74,North,0,7.0,18.0,100,0.00,,,0.00,WeatherCatV1.01B143,2013-05-25 06:35:00,
2013-05-25 02:40:00,124.5,99.9,29.74,North,0,7.0,18.0,100,0.00,,,0.00,WeatherCatV1.01B143,2013-05-25 06:40:00,
2013-05-25 02:45:00,124.5,99.9,29.74,North,0,7.0,18.0,100,0.00,,,0.00,WeatherCatV1.01B143,2013-05-25 06:45:00,
2013-05-25 02:50:00,124.5,99.9,29.74,North,0,7.0,18.0,100,0.00,,,0.00,WeatherCatV1.01B143,2013-05-25 06:50:00,
2013-05-25 02:55:00,124.5,99.9,29.74,North,0,7.0,18.0,100,0.00,,,0.00,WeatherCatV1.01B143,2013-05-25 06:55:00,
2013-05-25 03:00:00,50.0,50.0,29.75,North,0,0.0,0.0,50,0.00,,,0.00,WeatherCatV1.01B143,2013-05-25 07:00:00,
2013-05-25 03:05:00,50.0,50.0,29.75,North,0,0.0,0.0,50,0.00,,,0.00,WeatherCatV1.01B143,2013-05-25 07:05:00,
2013-05-25 03:10:00,50.0,50.0,29.75,North,0,0.0,0.0,50,0.00,,,0.00,WeatherCatV1.01B143,2013-05-25 07:10:00,
2013-05-25 03:15:00,50.0,50.0,29.75,North,0,0.0,0.0,50,0.00,,,0.00,WeatherCatV1.01B143,2013-05-25 07:15:00,
2013-05-25 03:20:00,50.0,50.0,29.75,North,0,0.0,0.0,50,0.00,,,0.00,WeatherCatV1.01B143,2013-05-25 07:20:00,
2013-05-25 03:25:00,50.0,50.0,29.75,North,0,0.0,0.0,50,0.00,,,0.00,WeatherCatV1.01B143,2013-05-25 07:25:00,
2013-05-25 03:30:00,50.0,50.0,29.76,North,0,0.0,0.0,50,0.00,,,0.00,WeatherCatV1.01B143,2013-05-25 07:30:00,
2013-05-25 03:35:00,50.0,50.0,29.76,North,0,0.0,0.0,50,0.00,,,0.00,WeatherCatV1.01B143,2013-05-25 07:35:00,
2013-05-25 03:40:00,50.0,50.0,29.76,North,0,0.0,0.0,50,0.00,,,0.00,WeatherCatV1.01B143,2013-05-25 07:40:00,
2013-05-25 03:45:00,50.0,50.0,29.76,North,0,0.0,0.0,50,0.00,,,0.00,WeatherCatV1.01B143,2013-05-25 07:45:00,
2013-05-25 03:50:00,50.0,50.0,29.76,North,0,0.0,0.0,50,0.00,,,0.00,WeatherCatV1.01B143,2013-05-25 07:50:00,
2013-05-25 03:55:00,50.0,50.0,29.76,North,0,0.0,0.0,50,0.00,,,0.00,WeatherCatV1.01B143,2013-05-25 07:55:00,
2013-05-25 04:00:00,50.0,50.0,29.76,North,0,0.0,0.0,50,0.00,,,0.00,WeatherCatV1.01B143,2013-05-25 08:00:00,
2013-05-25 04:05:00,50.0,50.0,29.76,North,0,0.0,0.0,50,0.00,,,0.00,WeatherCatV1.01B143,2013-05-25 08:05:00,
2013-05-25 04:10:00,50.0,50.0,29.76,North,0,0.0,0.0,50,0.00,,,0.00,WeatherCatV1.01B143,2013-05-25 08:10:00,
2013-05-25 04:15:00,50.0,50.0,29.76,North,0,0.0,0.0,50,0.00,,,0.00,WeatherCatV1.01B143,2013-05-25 08:15:00,
2013-05-25 04:20:00,50.0,50.0,29.76,North,0,0.0,0.0,50,0.00,,,0.00,WeatherCatV1.01B143,2013-05-25 08:20:00,
2013-05-25 04:25:00,50.0,50.0,29.76,North,0,0.0,0.0,50,0.00,,,0.00,WeatherCatV1.01B143,2013-05-25 08:25:00,
2013-05-25 04:30:00,50.0,50.0,29.76,North,0,0.0,0.0,50,0.00,,,0.00,WeatherCatV1.01B143,2013-05-25 08:30:00,
2013-05-25 04:35:00,50.0,50.0,29.75,North,0,0.0,0.0,50,0.00,,,0.00,WeatherCatV1.01B143,2013-05-25 08:35:00,
2013-05-25 04:40:00,50.0,50.0,29.75,North,0,0.0,0.0,50,0.00,,,0.00,WeatherCatV1.01B143,2013-05-25 08:40:00,
2013-05-25 04:45:00,50.0,50.0,29.75,North,0,0.0,0.0,50,0.00,,,0.00,WeatherCatV1.01B143,2013-05-25 08:45:00,
2013-05-25 04:50:00,50.0,50.0,29.75,North,0,0.0,0.0,50,0.00,,,0.00,WeatherCatV1.01B143,2013-05-25 08:50:00,
2013-05-25 04:55:00,50.0,50.0,29.75,North,0,0.0,0.0,50,0.00,,,0.00,WeatherCatV1.01B143,2013-05-25 08:55:00,
2013-05-25 05:00:00,50.0,50.0,29.75,North,0,0.0,0.0,50,0.00,,,0.00,WeatherCatV1.01B143,2013-05-25 09:00:00,
2013-05-25 05:05:00,50.0,50.0,29.75,North,0,0.0,0.0,50,0.00,,,0.00,WeatherCatV1.01B143,2013-05-25 09:05:00,
2013-05-25 05:10:00,50.0,50.0,29.75,North,0,0.0,0.0,50,0.00,,,0.00,WeatherCatV1.01B143,2013-05-25 09:10:00,
2013-05-25 05:15:00,50.0,50.0,29.75,North,0,0.0,0.0,50,0.00,,,0.00,WeatherCatV1.01B143,2013-05-25 09:15:00,
2013-05-25 05:20:00,50.0,50.0,29.75,North,0,0.0,0.0,50,0.00,,,0.00,WeatherCatV1.01B143,2013-05-25 09:20:00,
2013-05-25 05:25:00,50.0,50.0,29.75,North,0,0.0,0.0,50,0.00,,,0.00,WeatherCatV1.01B143,2013-05-25 09:25:00,
2013-05-25 05:30:00,50.0,50.0,29.75,North,0,0.0,0.0,50,0.00,,,0.00,WeatherCatV1.01B143,2013-05-25 09:30:00,
2013-05-25 05:35:00,50.0,50.0,29.74,North,0,0.0,0.0,50,0.00,,,0.00,WeatherCatV1.01B143,2013-05-25 09:35:00,
2013-05-25 05:40:00,50.0,50.0,29.74,North,0,0.0,0.0,50,0.00,,,0.00,WeatherCatV1.01B143,2013-05-25 09:40:00,
2013-05-25 05:45:00,50.0,50.0,29.74,North,0,0.0,0.0,50,0.00,,,0.00,WeatherCatV1.01B143,2013-05-25 09:45:00,
2013-05-25 05:50:00,50.0,50.0,29.74,North,0,0.0,0.0,50,0.00,,,0.00,WeatherCatV1.01B143,2013-05-25 09:50:00,
2013-05-25 05:55:00,50.0,50.0,29.74,North,0,0.0,0.0,50,0.00,,,0.00,WeatherCatV1.01B143,2013-05-25 09:55:00,
2013-05-25 06:00:00,50.0,50.0,29.74,North,0,0.0,0.0,50,0.00,,,0.00,WeatherCatV1.01B143,2013-05-25 10:00:00,
2013-05-25 06:05:00,50.0,50.0,29.76,North,0,0.0,0.0,50,0.00,,,0.00,WeatherCatV1.01B143,2013-05-25 10:05:00,
2013-05-25 06:10:00,50.0,50.0,29.76,North,0,0.0,0.0,50,0.00,,,0.00,WeatherCatV1.01B143,2013-05-25 10:10:00,
2013-05-25 06:15:00,50.0,50.0,29.76,North,0,0.0,0.0,50,0.00,,,0.00,WeatherCatV1.01B143,2013-05-25 10:15:00,
2013-05-25 06:20:00,50.0,50.0,29.76,North,0,0.0,0.0,50,0.00,,,0.00,WeatherCatV1.01B143,2013-05-25 10:20:00,
2013-05-25 06:25:00,50.0,50.0,29.76,North,0,0.0,0.0,50,0.00,,,0.00,WeatherCatV1.01B143,2013-05-25 10:25:00,
2013-05-25 06:30:00,50.0,50.0,29.76,North,0,0.0,0.0,50,0.00,,,0.00,WeatherCatV1.01B143,2013-05-25 10:30:00,
2013-05-25 06:35:00,50.0,50.0,29.76,North,0,0.0,0.0,50,0.00,,,0.00,WeatherCatV1.01B143,2013-05-25 10:35:00,
2013-05-25 06:40:00,50.0,50.0,29.76,North,0,0.0,0.0,50,0.00,,,0.00,WeatherCatV1.01B143,2013-05-25 10:40:00,
2013-05-25 06:45:00,50.0,50.0,29.76,North,0,0.0,0.0,50,0.00,,,0.00,WeatherCatV1.01B143,2013-05-25 10:45:00,
2013-05-25 06:50:00,50.0,50.0,29.76,North,0,0.0,0.0,50,0.00,,,0.00,WeatherCatV1.01B143,2013-05-25 10:50:00,
2013-05-25 06:55:00,50.0,50.0,29.76,North,0,0.0,0.0,50,0.00,,,0.00,WeatherCatV1.01B143,2013-05-25 10:55:00,
2013-05-25 07:00:00,50.0,50.0,29.76,North,0,0.0,0.0,50,0.00,,,0.00,WeatherCatV1.01B143,2013-05-25 11:00:00,
2013-05-25 07:05:00,50.0,50.0,29.76,North,0,0.0,0.0,50,0.00,,,0.00,WeatherCatV1.01B143,2013-05-25 11:05:00,
2013-05-25 07:10:00,50.0,50.0,29.76,North,0,0.0,0.0,50,0.00,,,0.00,WeatherCatV1.01B143,2013-05-25 11:10:00,
2013-05-25 07:15:00,50.0,50.0,29.76,North,0,0.0,0.0,50,0.00,,,0.00,WeatherCatV1.01B143,2013-05-25 11:15:00,
2013-05-25 07:20:00,50.0,50.0,29.76,North,0,0.0,0.0,50,0.00,,,0.00,WeatherCatV1.01B143,2013-05-25 11:20:00,
2013-05-25 07:25:00,50.0,50.0,29.76,North,0,0.0,0.0,50,0.00,,,0.00,WeatherCatV1.01B143,2013-05-25 11:25:00,
2013-05-25 07:30:00,50.0,50.0,29.76,North,0,0.0,0.0,50,0.00,,,0.00,WeatherCatV1.01B143,2013-05-25 11:30:00,
2013-05-25 07:35:00,50.0,50.0,29.76,North,0,0.0,0.0,50,0.00,,,0.00,WeatherCatV1.01B143,2013-05-25 11:35:00,
2013-05-25 07:40:00,50.0,50.0,29.76,North,0,0.0,0.0,50,0.00,,,0.00,WeatherCatV1.01B143,2013-05-25 11:40:00,
2013-05-25 07:45:00,50.0,50.0,29.76,North,0,0.0,0.0,50,0.00,,,0.00,WeatherCatV1.01B143,2013-05-25 11:45:00,
2013-05-25 07:50:00,50.0,50.0,29.76,North,0,0.0,0.0,50,0.00,,,0.00,WeatherCatV1.01B143,2013-05-25 11:50:00,
2013-05-25 07:55:00,50.0,50.0,29.76,North,0,0.0,0.0,50,0.00,,,0.00,WeatherCatV1.01B143,2013-05-25 11:55:00,
2013-05-25 08:00:00,50.0,50.0,29.76,North,0,0.0,0.0,50,0.00,,,0.00,WeatherCatV1.01B143,2013-05-25 12:00:00,
2013-05-25 08:05:00,50.0,50.0,29.76,North,0,0.0,0.0,50,0.00,,,0.00,WeatherCatV1.01B143,2013-05-25 12:05:00,
2013-05-25 08:10:00,50.0,50.0,29.76,North,0,0.0,0.0,50,0.00,,,0.00,WeatherCatV1.01B143,2013-05-25 12:10:00,
2013-05-25 08:15:00,50.0,50.0,29.76,North,0,0.0,0.0,50,0.00,,,0.00,WeatherCatV1.01B143,2013-05-25 12:15:00,
2013-05-25 08:20:00,50.0,50.0,29.76,North,0,0.0,0.0,50,0.00,,,0.00,WeatherCatV1.01B143,2013-05-25 12:20:00,
2013-05-25 08:25:00,50.0,50.0,29.76,North,0,0.0,0.0,50,0.00,,,0.00,WeatherCatV1.01B143,2013-05-25 12:25:00,
2013-05-25 08:30:00,50.0,50.0,29.76,North,0,0.0,0.0,50,0.00,,,0.00,WeatherCatV1.01B143,2013-05-25 12:30:00,
2013-05-25 08:35:00,50.0,50.0,29.76,North,0,0.0,0.0,50,0.00,,,0.00,WeatherCatV1.01B143,2013-05-25 12:35:00,
2013-05-25 08:40:00,50.0,50.0,29.76,North,0,0.0,0.0,50,0.00,,,0.00,WeatherCatV1.01B143,2013-05-25 12:40:00,
2013-05-25 08:45:00,50.0,50.0,29.76,North,0,0.0,0.0,50,0.00,,,0.00,WeatherCatV1.01B143,2013-05-25 12:45:00,
2013-05-25 08:50:00,50.0,50.0,29.76,North,0,0.0,0.0,50,0.00,,,0.00,WeatherCatV1.01B143,2013-05-25 12:50:00,
2013-05-25 08:55:00,50.0,50.0,29.76,North,0,0.0,0.0,50,0.00,,,0.00,WeatherCatV1.01B143,2013-05-25 12:55:00,
2013-05-25 09:00:00,50.0,50.0,29.76,North,0,0.0,0.0,50,0.00,,,0.00,WeatherCatV1.01B143,2013-05-25 13:00:00,
2013-05-25 09:05:00,49.3,49.0,29.76,NW,315,6.0,15.0,99,0.00,,,0.00,WeatherCatV1.01B143,2013-05-25 13:05:00,
2013-05-25 09:10:00,49.3,49.0,29.76,NW,315,6.0,15.0,99,0.00,,,0.00,WeatherCatV1.01B143,2013-05-25 13:10:00,
2013-05-25 09:15:00,49.3,49.0,29.76,NW,315,6.0,15.0,99,0.00,,,0.00,WeatherCatV1.01B143,2013-05-25 13:15:00,
2013-05-25 09:20:00,49.3,49.0,29.76,NW,315,6.0,15.0,99,0.00,,,0.00,WeatherCatV1.01B143,2013-05-25 13:20:00,
2013-05-25 09:25:00,49.3,49.0,29.76,NW,315,6.0,15.0,99,0.00,,,0.00,WeatherCatV1.01B143,2013-05-25 13:25:00,
2013-05-25 09:30:00,49.3,49.0,29.76,NW,315,6.0,15.0,99,0.00,,,0.00,WeatherCatV1.01B143,2013-05-25 13:30:00,
2013-05-25 09:35:00,49.7,49.2,29.76,NW,315,6.0,15.0,98,0.00,,,0.00,WeatherCatV1.01B143,2013-05-25 13:35:00,
2013-05-25 09:40:00,49.7,49.2,29.76,NW,315,6.0,15.0,98,0.00,,,0.00,WeatherCatV1.01B143,2013-05-25 13:40:00,
2013-05-25 09:45:00,49.7,49.2,29.76,NW,315,6.0,15.0,98,0.00,,,0.00,WeatherCatV1.01B143,2013-05-25 13:45:00,
2013-05-25 09:50:00,49.7,49.2,29.76,NW,315,6.0,15.0,98,0.00,,,0.00,WeatherCatV1.01B143,2013-05-25 13:50:00,
2013-05-25 09:55:00,49.7,49.2,29.76,NW,315,6.0,15.0,98,0.00,,,0.00,WeatherCatV1.01B143,2013-05-25 13:55:00,
2013-05-25 10:00:00,49.7,49.2,29.76,NW,315,6.0,15.0,98,0.00,,,0.00,WeatherCatV1.01B143,2013-05-25 14:00:00,
2013-05-25 10:05:00,49.7,49.2,29.75,NW,315,6.0,13.0,98,0.00,,,0.00,WeatherCatV1.01B143,2013-05-25 14:05:00,
2013-05-25 10:10:00,49.7,49.2,29.75,NW,315,6.0,13.0,98,0.00,,,0.00,WeatherCatV1.01B143,2013-05-25 14:10:00,
2013-05-25 10:15:00,49.7,49.2,29.75,NW,315,6.0,13.0,98,0.00,,,0.00,WeatherCatV1.01B143,2013-05-25 14:15:00,
2013-05-25 10:20:00,49.7,49.2,29.75,NW,315,6.0,13.0,98,0.00,,,0.00,WeatherCatV1.01B143,2013-05-25 14:20:00,
2013-05-25 10:25:00,49.7,49.2,29.75,NW,315,6.0,13.0,98,0.00,,,0.00,WeatherCatV1.01B143,2013-05-25 14:25:00,
2013-05-25 10:30:00,49.7,49.2,29.75,NW,315,6.0,13.0,98,0.00,,,0.00,WeatherCatV1.01B143,2013-05-25 14:30:00,
2013-05-25 10:35:00,49.9,49.1,29.75,NW,315,7.0,15.0,97,0.00,,,0.00,WeatherCatV1.01B143,2013-05-25 14:35:00,
2013-05-25 10:40:00,49.9,49.1,29.75,NW,315,7.0,15.0,97,0.00,,,0.00,WeatherCatV1.01B143,2013-05-25 14:40:00,
2013-05-25 10:45:00,49.9,49.1,29.75,NW,315,7.0,15.0,97,0.00,,,0.00,WeatherCatV1.01B143,2013-05-25 14:45:00,
2013-05-25 10:50:00,49.9,49.1,29.75,NW,315,7.0,15.0,97,0.00,,,0.00,WeatherCatV1.01B143,2013-05-25 14:50:00,
2013-05-25 10:55:00,49.9,49.1,29.75,NW,315,7.0,15.0,97,0.00,,,0.00,WeatherCatV1.01B143,2013-05-25 14:55:00,
2013-05-25 11:00:00,50.7,49.3,29.75,NW,315,8.0,18.0,95,0.00,,,0.00,WeatherCatV1.01B143,2013-05-25 15:00:00,
2013-05-25 11:05:00,50.7,49.3,29.75,NW,315,8.0,18.0,95,0.00,,,0.00,WeatherCatV1.01B143,2013-05-25 15:05:00,
2013-05-25 11:10:00,50.7,49.3,29.75,NW,315,8.0,18.0,95,0.00,,,0.00,WeatherCatV1.01B143,2013-05-25 15:10:00,
2013-05-25 11:15:00,50.7,49.3,29.75,NW,315,8.0,18.0,95,0.00,,,0.00,WeatherCatV1.01B143,2013-05-25 15:15:00,
2013-05-25 11:20:00,50.7,49.3,29.75,NW,315,8.0,18.0,95,0.00,,,0.00,WeatherCatV1.01B143,2013-05-25 15:20:00,
2013-05-25 11:25:00,50.7,49.3,29.75,NW,315,8.0,18.0,95,0.00,,,0.00,WeatherCatV1.01B143,2013-05-25 15:25:00,
2013-05-25 11:30:00,51.4,49.2,29.74,NW,315,9.0,17.0,92,0.00,,,0.00,WeatherCatV1.01B143,2013-05-25 15:30:00,
2013-05-25 11:35:00,51.4,49.2,29.74,NW,315,9.0,17.0,92,0.00,,,0.00,WeatherCatV1.01B143,2013-05-25 15:35:00,
2013-05-25 11:40:00,51.4,49.2,29.74,NW,315,9.0,17.0,92,0.00,,,0.00,WeatherCatV1.01B143,2013-05-25 15:40:00,
2013-05-25 11:45:00,51.4,49.2,29.74,NW,315,9.0,17.0,92,0.00,,,0.00,WeatherCatV1.01B143,2013-05-25 15:45:00,
2013-05-25 11:50:00,51.4,49.2,29.74,NW,315,9.0,17.0,92,0.00,,,0.00,WeatherCatV1.01B143,2013-05-25 15:50:00,
2013-05-25 11:55:00,51.4,49.2,29.74,NW,315,9.0,17.0,92,0.00,,,0.00,WeatherCatV1.01B143,2013-05-25 15:55:00,
2013-05-25 12:00:00,50.8,48.8,29.74,NW,315,11.0,20.0,93,0.00,,,0.00,WeatherCatV1.01B143,2013-05-25 16:00:00,
2013-05-25 12:05:00,50.8,48.8,29.74,NW,315,11.0,20.0,93,0.00,,,0.00,WeatherCatV1.01B143,2013-05-25 16:05:00,
2013-05-25 12:10:00,50.8,48.8,29.74,NW,315,11.0,20.0,93,0.00,,,0.00,WeatherCatV1.01B143,2013-05-25 16:10:00,
2013-05-25 12:15:00,50.8,48.8,29.74,NW,315,11.0,20.0,93,0.00,,,0.00,WeatherCatV1.01B143,2013-05-25 16:15:00,
2013-05-25 12:20:00,50.8,48.8,29.74,NW,315,11.0,20.0,93,0.00,,,0.00,WeatherCatV1.01B143,2013-05-25 16:20:00,
2013-05-25 12:25:00,50.8,48.8,29.74,NW,315,11.0,20.0,93,0.00,,,0.00,WeatherCatV1.01B143,2013-05-25 16:25:00,
2013-05-25 12:30:00,50.8,48.8,29.74,NW,315,11.0,20.0,93,0.00,,,0.00,WeatherCatV1.01B143,2013-05-25 16:30:00,
2013-05-25 12:35:00,52.4,49.0,29.73,NW,315,11.0,22.0,88,0.00,,,0.00,WeatherCatV1.01B143,2013-05-25 16:35:00,
2013-05-25 12:40:00,52.4,49.0,29.73,NW,315,11.0,22.0,88,0.00,,,0.00,WeatherCatV1.01B143,2013-05-25 16:40:00,
2013-05-25 12:45:00,52.4,49.0,29.73,NW,315,11.0,22.0,88,0.00,,,0.00,WeatherCatV1.01B143,2013-05-25 16:45:00,
2013-05-25 12:50:00,52.4,49.0,29.73,NW,315,11.0,22.0,88,0.00,,,0.00,WeatherCatV1.01B143,2013-05-25 16:50:00,
2013-05-25 12:55:00,52.4,49.0,29.73,NW,315,11.0,22.0,88,0.00,,,0.00,WeatherCatV1.01B143,2013-05-25 16:55:00,
2013-05-25 13:00:00,52.4,49.0,29.73,NW,315,11.0,22.0,88,0.00,,,0.00,WeatherCatV1.01B143,2013-05-25 17:00:00,
2013-05-25 13:05:00,51.1,48.3,29.73,NW,315,12.0,20.0,90,0.00,,,0.00,WeatherCatV1.01B143,2013-05-25 17:05:00,
2013-05-25 13:10:00,51.1,48.3,29.73,NW,315,12.0,20.0,90,0.00,,,0.00,WeatherCatV1.01B143,2013-05-25 17:10:00,
2013-05-25 13:15:00,51.1,48.3,29.73,NW,315,12.0,20.0,90,0.00,,,0.00,WeatherCatV1.01B143,2013-05-25 17:15:00,
2013-05-25 13:20:00,51.1,48.3,29.73,NW,315,12.0,20.0,90,0.00,,,0.00,WeatherCatV1.01B143,2013-05-25 17:20:00,
2013-05-25 13:25:00,51.1,48.3,29.73,NW,315,12.0,20.0,90,0.00,,,0.00,WeatherCatV1.01B143,2013-05-25 17:25:00,
2013-05-25 13:30:00,51.1,48.3,29.73,NW,315,12.0,20.0,90,0.00,,,0.00,WeatherCatV1.01B143,2013-05-25 17:30:00,
2013-05-25 13:35:00,49.6,47.7,29.74,NW,315,12.0,22.0,93,0.00,,,0.00,WeatherCatV1.01B143,2013-05-25 17:35:00,
2013-05-25 13:40:00,49.6,47.7,29.74,NW,315,12.0,22.0,93,0.00,,,0.00,WeatherCatV1.01B143,2013-05-25 17:40:00,
2013-05-25 13:45:00,49.6,47.7,29.74,NW,315,12.0,22.0,93,0.00,,,0.00,WeatherCatV1.01B143,2013-05-25 17:45:00,
2013-05-25 13:50:00,49.6,47.7,29.74,NW,315,12.0,22.0,93,0.00,,,0.00,WeatherCatV1.01B143,2013-05-25 17:50:00,
2013-05-25 13:55:00,49.6,47.7,29.74,NW,315,12.0,22.0,93,0.00,,,0.00,WeatherCatV1.01B143,2013-05-25 17:55:00,
2013-05-25 14:00:00,49.6,47.7,29.74,NW,315,12.0,22.0,93,0.00,,,0.00,WeatherCatV1.01B143,2013-05-25 18:00:00,
2013-05-25 14:05:00,48.9,47.2,29.74,NW,315,12.0,25.0,94,0.00,,,0.00,WeatherCatV1.01B143,2013-05-25 18:05:00,
2013-05-25 14:10:00,48.9,47.2,29.74,NW,315,12.0,25.0,94,0.00,,,0.00,WeatherCatV1.01B143,2013-05-25 18:10:00,
2013-05-25 14:15:00,48.9,47.2,29.74,NW,315,12.0,25.0,94,0.00,,,0.00,WeatherCatV1.01B143,2013-05-25 18:15:00,
2013-05-25 14:20:00,48.9,47.2,29.74,NW,315,12.0,25.0,94,0.00,,,0.00,WeatherCatV1.01B143,2013-05-25 18:20:00,
2013-05-25 14:25:00,48.9,47.2,29.74,NW,315,12.0,25.0,94,0.00,,,0.00,WeatherCatV1.01B143,2013-05-25 18:25:00,
2013-05-25 14:30:00,48.9,47.2,29.74,NW,315,12.0,25.0,94,0.00,,,0.00,WeatherCatV1.01B143,2013-05-25 18:30:00,
2013-05-25 14:35:00,49.3,47.4,29.73,NW,315,13.0,26.0,93,0.00,,,0.00,WeatherCatV1.01B143,2013-05-25 18:35:00,
2013-05-25 14:40:00,49.3,47.4,29.73,NW,315,13.0,26.0,93,0.00,,,0.00,WeatherCatV1.01B143,2013-05-25 18:40:00,
2013-05-25 14:45:00,49.3,47.4,29.73,NW,315,13.0,26.0,93,0.00,,,0.00,WeatherCatV1.01B143,2013-05-25 18:45:00,
2013-05-25 14:50:00,49.3,47.4,29.73,NW,315,13.0,26.0,93,0.00,,,0.00,WeatherCatV1.01B143,2013-05-25 18:50:00,
2013-05-25 14:55:00,49.3,47.4,29.73,NW,315,13.0,26.0,93,0.00,,,0.00,WeatherCatV1.01B143,2013-05-25 18:55:00,
2013-05-25 15:00:00,49.3,47.4,29.73,NW,315,13.0,26.0,93,0.00,,,0.00,WeatherCatV1.01B143,2013-05-25 19:00:00,
2013-05-25 15:05:00,49.0,47.1,29.73,NW,315,14.0,26.0,93,0.00,,,0.00,WeatherCatV1.01B143,2013-05-25 19:05:00,
2013-05-25 15:10:00,49.0,47.1,29.73,NW,315,14.0,26.0,93,0.00,,,0.00,WeatherCatV1.01B143,2013-05-25 19:10:00,
2013-05-25 15:15:00,49.0,47.1,29.73,NW,315,14.0,26.0,93,0.00,,,0.00,WeatherCatV1.01B143,2013-05-25 19:15:00,
2013-05-25 15:20:00,49.0,47.1,29.73,NW,315,14.0,26.0,93,0.00,,,0.00,WeatherCatV1.01B143,2013-05-25 19:20:00,
2013-05-25 15:25:00,49.0,47.1,29.73,NW,315,14.0,26.0,93,0.00,,,0.00,WeatherCatV1.01B143,2013-05-25 19:25:00,
2013-05-25 15:30:00,49.0,47.1,29.73,NW,315,14.0,26.0,93,0.00,,,0.00,WeatherCatV1.01B143,2013-05-25 19:30:00,
2013-05-25 15:35:00,49.0,47.1,29.73,NW,315,15.0,27.0,93,0.00,,,0.00,WeatherCatV1.01B143,2013-05-25 19:35:00,
2013-05-25 15:40:00,49.0,47.1,29.73,NW,315,15.0,27.0,93,0.00,,,0.00,WeatherCatV1.01B143,2013-05-25 19:40:00,
2013-05-25 15:45:00,49.0,47.1,29.73,NW,315,15.0,27.0,93,0.00,,,0.00,WeatherCatV1.01B143,2013-05-25 19:45:00,
2013-05-25 15:50:00,49.0,47.1,29.73,NW,315,15.0,27.0,93,0.00,,,0.00,WeatherCatV1.01B143,2013-05-25 19:50:00,
2013-05-25 15:55:00,49.0,47.1,29.73,NW,315,15.0,27.0,93,0.00,,,0.00,WeatherCatV1.01B143,2013-05-25 19:55:00,
2013-05-25 16:00:00,49.0,47.1,29.73,NW,315,15.0,27.0,93,0.00,,,0.00,WeatherCatV1.01B143,2013-05-25 20:00:00,
2013-05-25 16:05:00,49.2,46.4,29.72,NW,315,15.0,27.0,90,0.00,,,0.00,WeatherCatV1.01B143,2013-05-25 20:05:00,
2013-05-25 16:10:00,49.2,46.4,29.72,NW,315,15.0,27.0,90,0.00,,,0.00,WeatherCatV1.01B143,2013-05-25 20:10:00,
2013-05-25 16:15:00,49.2,46.4,29.72,NW,315,15.0,27.0,90,0.00,,,0.00,WeatherCatV1.01B143,2013-05-25 20:15:00,
2013-05-25 16:20:00,49.2,46.4,29.72,NW,315,15.0,27.0,90,0.00,,,0.00,WeatherCatV1.01B143,2013-05-25 20:20:00,
2013-05-25 16:25:00,49.2,46.4,29.72,NW,315,15.0,27.0,90,0.00,,,0.00,WeatherCatV1.01B143,2013-05-25 20:25:00,
2013-05-25 16:30:00,49.2,46.4,29.72,NW,315,15.0,27.0,90,0.00,,,0.00,WeatherCatV1.01B143,2013-05-25 20:30:00,
2013-05-25 16:35:00,49.0,46.2,29.72,NW,315,15.0,27.0,90,0.00,,,0.00,WeatherCatV1.01B143,2013-05-25 20:35:00,
2013-05-25 16:40:00,49.0,46.2,29.72,NW,315,15.0,27.0,90,0.00,,,0.00,WeatherCatV1.01B143,2013-05-25 20:40:00,
2013-05-25 16:45:00,49.0,46.2,29.72,NW,315,15.0,27.0,90,0.00,,,0.00,WeatherCatV1.01B143,2013-05-25 20:45:00,
2013-05-25 16:50:00,49.0,46.2,29.72,NW,315,15.0,27.0,90,0.00,,,0.00,WeatherCatV1.01B143,2013-05-25 20:50:00,
2013-05-25 16:55:00,49.0,46.2,29.72,NW,315,15.0,27.0,90,0.00,,,0.00,WeatherCatV1.01B143,2013-05-25 20:55:00,
2013-05-25 17:00:00,49.0,46.2,29.72,NW,315,15.0,27.0,90,0.00,,,0.00,WeatherCatV1.01B143,2013-05-25 21:00:00,
2013-05-25 17:05:00,48.4,45.6,29.73,NW,315,17.0,28.0,90,0.00,,,0.00,WeatherCatV1.01B143,2013-05-25 21:05:00,
2013-05-25 17:10:00,48.4,45.6,29.73,NW,315,17.0,28.0,90,0.00,,,0.00,WeatherCatV1.01B143,2013-05-25 21:10:00,
2013-05-25 17:15:00,48.4,45.6,29.73,NW,315,17.0,28.0,90,0.00,,,0.00,WeatherCatV1.01B143,2013-05-25 21:15:00,
2013-05-25 17:20:00,48.4,45.6,29.73,NW,315,17.0,28.0,90,0.00,,,0.00,WeatherCatV1.01B143,2013-05-25 21:20:00,
2013-05-25 17:25:00,48.4,45.6,29.73,NW,315,17.0,28.0,90,0.00,,,0.00,WeatherCatV1.01B143,2013-05-25 21:25:00,
2013-05-25 17:30:00,48.4,45.6,29.73,NW,315,17.0,28.0,90,0.00,,,0.00,WeatherCatV1.01B143,2013-05-25 21:30:00,
2013-05-25 17:35:00,48.0,43.7,29.73,NW,315,17.0,36.0,85,0.00,,,0.00,WeatherCatV1.01B143,2013-05-25 21:35:00,
2013-05-25 17:40:00,48.0,43.7,29.73,NW,315,17.0,36.0,85,0.00,,,0.00,WeatherCatV1.01B143,2013-05-25 21:40:00,
2013-05-25 17:45:00,48.0,43.7,29.73,NW,315,17.0,36.0,85,0.00,,,0.00,WeatherCatV1.01B143,2013-05-25 21:45:00,
2013-05-25 17:50:00,48.0,43.7,29.73,NW,315,17.0,36.0,85,0.00,,,0.00,WeatherCatV1.01B143,2013-05-25 21:50:00,
2013-05-25 17:55:00,48.0,43.7,29.73,NW,315,17.0,36.0,85,0.00,,,0.00,WeatherCatV1.01B143,2013-05-25 21:55:00,
2013-05-25 18:00:00,48.0,43.7,29.73,NW,315,17.0,36.0,85,0.00,,,0.00,WeatherCatV1.01B143,2013-05-25 22:00:00,
2013-05-25 18:05:00,47.8,43.8,29.75,NW,315,17.0,32.0,86,0.00,,,0.00,WeatherCatV1.01B143,2013-05-25 22:05:00,
2013-05-25 18:10:00,47.8,43.8,29.75,NW,315,17.0,32.0,86,0.00,,,0.00,WeatherCatV1.01B143,2013-05-25 22:10:00,
2013-05-25 18:15:00,47.8,43.8,29.75,NW,315,17.0,32.0,86,0.00,,,0.00,WeatherCatV1.01B143,2013-05-25 22:15:00,
2013-05-25 18:20:00,47.8,43.8,29.75,NW,315,17.0,32.0,86,0.00,,,0.00,WeatherCatV1.01B143,2013-05-25 22:20:00,
2013-05-25 18:25:00,47.8,43.8,29.75,NW,315,17.0,32.0,86,0.00,,,0.00,WeatherCatV1.01B143,2013-05-25 22:25:00,
2013-05-25 18:30:00,47.8,43.8,29.75,NW,315,17.0,32.0,86,0.00,,,0.00,WeatherCatV1.01B143,2013-05-25 22:30:00,
2013-05-25 18:35:00,47.1,42.5,29.75,NW,315,17.0,30.0,84,0.00,,,0.00,WeatherCatV1.01B143,2013-05-25 22:35:00,
2013-05-25 18:40:00,47.1,42.5,29.75,NW,315,17.0,30.0,84,0.00,,,0.00,WeatherCatV1.01B143,2013-05-25 22:40:00,
2013-05-25 18:45:00,47.1,42.5,29.75,NW,315,17.0,30.0,84,0.00,,,0.00,WeatherCatV1.01B143,2013-05-25 22:45:00,
2013-05-25 18:50:00,47.1,42.5,29.75,NW,315,17.0,30.0,84,0.00,,,0.00,WeatherCatV1.01B143,2013-05-25 22:50:00,
2013-05-25 18:55:00,47.1,42.5,29.75,NW,315,17.0,30.0,84,0.00,,,0.00,WeatherCatV1.01B143,2013-05-25 22:55:00,
2013-05-25 19:00:00,47.1,42.5,29.75,NW,315,17.0,30.0,84,0.00,,,0.00,WeatherCatV1.01B143,2013-05-25 23:00:00,
2013-05-25 19:05:00,46.4,42.1,29.76,NW,315,16.0,35.0,85,0.00,,,0.00,WeatherCatV1.01B143,2013-05-25 23:05:00,
2013-05-25 19:10:00,46.4,42.1,29.76,NW,315,16.0,35.0,85,0.00,,,0.00,WeatherCatV1.01B143,2013-05-25 23:10:00,
2013-05-25 19:15:00,46.4,42.1,29.76,NW,315,16.0,35.0,85,0.00,,,0.00,WeatherCatV1.01B143,2013-05-25 23:15:00,
2013-05-25 19:20:00,46.4,42.1,29.76,NW,315,16.0,35.0,85,0.00,,,0.00,WeatherCatV1.01B143,2013-05-25 23:20:00,
2013-05-25 19:25:00,46.4,42.1,29.76,NW,315,16.0,35.0,85,0.00,,,0.00,WeatherCatV1.01B143,2013-05-25 23:25:00,
2013-05-25 19:30:00,46.4,42.1,29.76,NW,315,16.0,35.0,85,0.00,,,0.00,WeatherCatV1.01B143,2013-05-25 23:30:00,
2013-05-25 19:35:00,45.5,42.4,29.77,NW,315,14.0,31.0,89,0.00,,,0.00,WeatherCatV1.01B143,2013-05-25 23:35:00,
2013-05-25 19:40:00,45.5,42.4,29.77,NW,315,14.0,31.0,89,0.00,,,0.00,WeatherCatV1.01B143,2013-05-25 23:40:00,
2013-05-25 19:45:00,45.5,42.4,29.77,NW,315,14.0,31.0,89,0.00,,,0.00,WeatherCatV1.01B143,2013-05-25 23:45:00,
2013-05-25 19:50:00,45.5,42.4,29.77,NW,315,14.0,31.0,89,0.00,,,0.00,WeatherCatV1.01B143,2013-05-25 23:50:00,
2013-05-25 19:55:00,45.5,42.4,29.77,NW,315,14.0,31.0,89,0.00,,,0.00,WeatherCatV1.01B143,2013-05-25 23:55:00,
2013-05-25 20:00:00,45.5,42.4,29.77,NW,315,14.0,31.0,89,0.00,,,0.00,WeatherCatV1.01B143,2013-05-26 00:00:00,
2013-05-25 20:05:00,44.3,41.8,29.78,NW,315,15.0,30.0,91,0.00,,,0.00,WeatherCatV1.01B143,2013-05-26 00:05:00,
2013-05-25 20:10:00,44.3,41.8,29.78,NW,315,15.0,30.0,91,0.00,,,0.00,WeatherCatV1.01B143,2013-05-26 00:10:00,
2013-05-25 20:15:00,44.3,41.8,29.78,NW,315,15.0,30.0,91,0.00,,,0.00,WeatherCatV1.01B143,2013-05-26 00:15:00,
2013-05-25 20:20:00,44.3,41.8,29.78,NW,315,15.0,30.0,91,0.00,,,0.00,WeatherCatV1.01B143,2013-05-26 00:20:00,
2013-05-25 20:25:00,44.3,41.8,29.78,NW,315,15.0,30.0,91,0.00,,,0.00,WeatherCatV1.01B143,2013-05-26 00:25:00,
2013-05-25 20:30:00,44.3,41.8,29.78,NW,315,15.0,30.0,91,0.00,,,0.00,WeatherCatV1.01B143,2013-05-26 00:30:00,
2013-05-25 20:35:00,44.1,41.4,29.78,NW,315,15.0,30.0,90,0.00,,,0.00,WeatherCatV1.01B143,2013-05-26 00:35:00,
2013-05-25 20:40:00,44.1,41.4,29.78,NW,315,15.0,30.0,90,0.00,,,0.00,WeatherCatV1.01B143,2013-05-26 00:40:00,
2013-05-25 20:45:00,44.1,41.4,29.78,NW,315,15.0,30.0,90,0.00,,,0.00,WeatherCatV1.01B143,2013-05-26 00:45:00,
2013-05-25 20:50:00,44.1,41.4,29.78,NW,315,15.0,30.0,90,0.00,,,0.00,WeatherCatV1.01B143,2013-05-26 00:50:00,
2013-05-25 20:55:00,44.1,41.4,29.78,NW,315,15.0,30.0,90,0.00,,,0.00,WeatherCatV1.01B143,2013-05-26 00:55:00,
2013-05-25 21:00:00,44.1,41.4,29.78,NW,315,15.0,30.0,90,0.00,,,0.00,WeatherCatV1.01B143,2013-05-26 01:00:00,
2013-05-25 21:05:00,44.1,41.4,29.78,NW,315,15.0,30.0,90,0.00,,,0.00,WeatherCatV1.01B143,2013-05-26 01:05:00,
2013-05-25 21:10:00,44.0,41.5,29.79,NW,315,16.0,28.0,91,0.00,,,0.00,WeatherCatV1.01B143,2013-05-26 01:10:00,
2013-05-25 21:15:00,44.0,41.5,29.79,NW,315,16.0,28.0,91,0.00,,,0.00,WeatherCatV1.01B143,2013-05-26 01:15:00,
2013-05-25 21:20:00,44.0,41.5,29.79,NW,315,16.0,28.0,91,0.00,,,0.00,WeatherCatV1.01B143,2013-05-26 01:20:00,
2013-05-25 21:25:00,44.0,41.5,29.79,NW,315,16.0,28.0,91,0.00,,,0.00,WeatherCatV1.01B143,2013-05-26 01:25:00,
2013-05-25 21:30:00,44.0,41.5,29.79,NW,315,16.0,28.0,91,0.00,,,0.00,WeatherCatV1.01B143,2013-05-26 01:30:00,
2013-05-25 21:35:00,44.0,41.5,29.79,NW,315,16.0,28.0,91,0.00,,,0.00,WeatherCatV1.01B143,2013-05-26 01:35:00,
2013-05-25 21:40:00,44.2,41.2,29.80,NW,315,15.0,28.0,89,0.00,,,0.00,WeatherCatV1.01B143,2013-05-26 01:40:00,
2013-05-25 21:45:00,44.2,41.2,29.80,NW,315,15.0,28.0,89,0.00,,,0.00,WeatherCatV1.01B143,2013-05-26 01:45:00,
2013-05-25 21:50:00,44.2,41.2,29.80,NW,315,15.0,28.0,89,0.00,,,0.00,WeatherCatV1.01B143,2013-05-26 01:50:00,
2013-05-25 21:55:00,44.2,41.2,29.80,NW,315,15.0,28.0,89,0.00,,,0.00,WeatherCatV1.01B143,2013-05-26 01:55:00,
2013-05-25 22:00:00,44.2,41.2,29.80,NW,315,15.0,28.0,89,0.00,,,0.00,WeatherCatV1.01B143,2013-05-26 02:00:00,
2013-05-25 22:05:00,44.2,41.2,29.80,NW,315,15.0,28.0,89,0.00,,,0.00,WeatherCatV1.01B143,2013-05-26 02:05:00,
2013-05-25 22:10:00,44.4,41.1,29.80,NW,315,16.0,30.0,88,0.00,,,0.00,WeatherCatV1.01B143,2013-05-26 02:10:00,
2013-05-25 22:15:00,44.4,41.1,29.80,NW,315,16.0,30.0,88,0.00,,,0.00,WeatherCatV1.01B143,2013-05-26 02:15:00,
2013-05-25 22:20:00,44.4,41.1,29.80,NW,315,16.0,30.0,88,0.00,,,0.00,WeatherCatV1.01B143,2013-05-26 02:20:00,
2013-05-25 22:25:00,44.4,41.1,29.80,NW,315,16.0,30.0,88,0.00,,,0.00,WeatherCatV1.01B143,2013-05-26 02:25:00,
2013-05-25 22:30:00,44.4,41.1,29.80,NW,315,16.0,30.0,88,0.00,,,0.00,WeatherCatV1.01B143,2013-05-26 02:30:00,
2013-05-25 22:35:00,44.4,41.1,29.80,NW,315,16.0,30.0,88,0.00,,,0.00,WeatherCatV1.01B143,2013-05-26 02:35:00,
2013-05-25 22:40:00,44.4,40.8,29.80,NW,315,17.0,29.0,87,0.00,,,0.00,WeatherCatV1.01B143,2013-05-26 02:40:00,
2013-05-25 22:45:00,44.4,40.8,29.80,NW,315,17.0,29.0,87,0.00,,,0.00,WeatherCatV1.01B143,2013-05-26 02:45:00,
2013-05-25 22:50:00,44.4,40.8,29.80,NW,315,17.0,29.0,87,0.00,,,0.00,WeatherCatV1.01B143,2013-05-26 02:50:00,
2013-05-25 22:55:00,44.4,40.8,29.80,NW,315,17.0,29.0,87,0.00,,,0.00,WeatherCatV1.01B143,2013-05-26 02:55:00,
2013-05-25 23:00:00,44.4,40.8,29.80,NW,315,17.0,29.0,87,0.00,,,0.00,WeatherCatV1.01B143,2013-05-26 03:00:00,
2013-05-25 23:05:00,44.4,40.8,29.80,NW,315,17.0,29.0,87,0.00,,,0.00,WeatherCatV1.01B143,2013-05-26 03:05:00,
2013-05-25 23:10:00,44.1,41.1,29.80,NW,315,17.0,29.0,89,0.00,,,0.00,WeatherCatV1.01B143,2013-05-26 03:10:00,
2013-05-25 23:15:00,44.1,41.1,29.80,NW,315,17.0,29.0,89,0.00,,,0.00,WeatherCatV1.01B143,2013-05-26 03:15:00,
2013-05-25 23:20:00,44.1,41.1,29.80,NW,315,17.0,29.0,89,0.00,,,0.00,WeatherCatV1.01B143,2013-05-26 03:20:00,
2013-05-25 23:25:00,44.1,41.1,29.80,NW,315,17.0,29.0,89,0.00,,,0.00,WeatherCatV1.01B143,2013-05-26 03:25:00,
2013-05-25 23:30:00,44.1,41.1,29.80,NW,315,17.0,29.0,89,0.00,,,0.00,WeatherCatV1.01B143,2013-05-26 03:30:00,
2013-05-25 23:35:00,44.1,41.1,29.80,NW,315,17.0,29.0,89,0.00,,,0.00,WeatherCatV1.01B143,2013-05-26 03:35:00,
2013-05-25 23:40:00,44.0,40.4,29.80,WNW,292,17.0,28.0,87,0.00,,,0.00,WeatherCatV1.01B143,2013-05-26 03:40:00,
2013-05-25 23:45:00,44.0,40.4,29.80,WNW,292,17.0,28.0,87,0.00,,,0.00,WeatherCatV1.01B143,2013-05-26 03:45:00,
2013-05-25 23:50:00,44.0,40.4,29.80,WNW,292,17.0,28.0,87,0.00,,,0.00,WeatherCatV1.01B143,2013-05-26 03:50:00,
2013-05-25 23:55:00,44.0,40.4,29.80,WNW,292,17.0,28.0,87,0.00,,,0.00,WeatherCatV1.01B143,2013-05-26 03:55:00,